Time;durP1;ratioP1;P1;durP2;ratioP2;P2;SDS_P1;SDS_P2;PMS_P1;PMS_P2;Temp;Humidity;BMP_temperature;BMP_pressure;BME280_temperature;BME280_humidity;BME280_pressure;Samples;Min_cycle;Max_cycle;Signal;HPM_P1;HPM_P2
2021/03/31 00:01:23;;;;;;;15.48;13.90;;;;;;;;;;4970066;28;20089;-52
2021/03/31 00:03:48;;;;;;;15.88;14.38;;;;;;;;;;4935342;28;20842;-53
2021/03/31 00:06:14;;;;;;;14.48;12.98;;;;;;;;;;4952457;28;20043;-51
2021/03/31 00:08:39;;;;;;;15.65;14.05;;;;;;;;;;4969233;28;20023;-53
2021/03/31 00:11:05;;;;;;;15.15;13.63;;;;;;;;;;4967561;28;20045;-51
2021/03/31 00:13:31;;;;;;;14.63;13.13;;;;;;;;;;4949948;28;20042;-51
2021/03/31 00:15:56;;;;;;;15.07;13.48;;;;;;;;;;4951153;28;20039;-55
2021/03/31 00:18:22;;;;;;;15.45;13.88;;;;;;;;;;4951142;28;20031;-51
2021/03/31 00:20:48;;;;;;;15.75;14.15;;;;;;;;;;4952327;28;20386;-55
2021/03/31 00:23:14;;;;;;;15.05;13.48;;;;;;;;;;4952500;28;20082;-52
2021/03/31 00:25:40;;;;;;;14.40;13.00;;;;;;;;;;4969173;28;20043;-52
2021/03/31 00:28:07;;;;;;;15.13;13.52;;;;;;;;;;4969068;28;20031;-54
2021/03/31 00:30:32;;;;;;;14.43;13.00;;;;;;;;;;4970544;28;20045;-54
2021/03/31 00:32:58;;;;;;;14.85;13.35;;;;;;;;;;4974035;28;20038;-52
2021/03/31 00:35:23;;;;;;;13.90;12.48;;;;;;;;;;4943600;28;20619;-54
2021/03/31 00:37:49;;;;;;;13.98;12.48;;;;;;;;;;4974538;28;20089;-53
2021/03/31 00:40:18;;;;;;;14.07;12.68;;;;;;;;;;4973732;28;20472;-53
2021/03/31 00:42:44;;;;;;;13.88;12.43;;;;;;;;;;4975244;28;20035;-52
2021/03/31 00:45:10;;;;;;;13.45;12.05;;;;;;;;;;4959140;28;20031;-53
2021/03/31 00:47:36;;;;;;;13.85;12.43;;;;;;;;;;4956756;28;20031;-55
2021/03/31 00:50:03;;;;;;;13.75;12.35;;;;;;;;;;4942599;28;20223;-55
2021/03/31 00:52:29;;;;;;;13.80;12.40;;;;;;;;;;4974142;28;20094;-54
2021/03/31 00:54:55;;;;;;;13.77;12.38;;;;;;;;;;4947360;28;20449;-54
2021/03/31 00:57:20;;;;;;;13.32;11.98;;;;;;;;;;4957409;28;20031;-51
2021/03/31 00:59:46;;;;;;;13.63;12.23;;;;;;;;;;4940576;28;20043;-54
2021/03/31 01:02:11;;;;;;;12.43;11.13;;;;;;;;;;4976027;28;20031;-54
2021/03/31 01:04:37;;;;;;;12.82;11.52;;;;;;;;;;4958791;28;20406;-54
2021/03/31 01:07:02;;;;;;;11.75;10.55;;;;;;;;;;4975380;28;20047;-51
2021/03/31 01:09:28;;;;;;;13.20;11.80;;;;;;;;;;4960135;28;20059;-53
2021/03/31 01:11:59;;;;;;;12.27;10.93;;;;;;;;;;4957861;28;20031;-51
2021/03/31 01:14:52;;;;;;;11.95;10.63;;;;;;;;;;4974490;28;20042;-52
2021/03/31 01:17:22;;;;;;;12.98;11.50;;;;;;;;;;4949690;28;20556;-53
2021/03/31 01:20:25;;;;;;;11.40;10.15;;;;;;;;;;4959884;28;20046;-53
2021/03/31 01:23:13;;;;;;;11.02;9.77;;;;;;;;;;4973154;28;21230;-54
2021/03/31 01:25:52;;;;;;;12.27;10.98;;;;;;;;;;4958851;28;20047;-55
2021/03/31 01:28:34;;;;;;;13.07;11.68;;;;;;;;;;4956366;28;20043;-54
2021/03/31 01:31:03;;;;;;;10.63;9.43;;;;;;;;;;4960043;28;20255;-54
2021/03/31 01:33:50;;;;;;;11.25;9.45;;;;;;;;;;4975871;28;20119;-52
2021/03/31 01:36:16;;;;;;;10.52;9.43;;;;;;;;;;4973310;28;20049;-53
2021/03/31 01:38:45;;;;;;;9.82;8.65;;;;;;;;;;4955720;28;20074;-54
2021/03/31 01:41:10;;;;;;;10.25;9.00;;;;;;;;;;4953115;28;20138;-54
2021/03/31 01:43:36;;;;;;;12.15;10.18;;;;;;;;;;4955598;28;20040;-53
2021/03/31 01:46:02;;;;;;;11.10;9.88;;;;;;;;;;4923002;28;20101;-53
2021/03/31 01:48:29;;;;;;;7.68;4.80;;;;;;;;;;4939435;28;20039;-57
2021/03/31 01:50:58;;;;;;;7.80;4.75;;;;;;;;;;4955737;28;20081;-50
2021/03/31 01:53:23;;;;;;;7.25;4.72;;;;;;;;;;4952563;28;20035;-53
2021/03/31 01:55:52;;;;;;;8.82;4.80;;;;;;;;;;4955264;28;21215;-51
2021/03/31 01:58:18;;;;;;;9.75;5.60;;;;;;;;;;4939509;28;20162;-54
2021/03/31 02:00:44;;;;;;;10.40;6.00;;;;;;;;;;4937959;28;20090;-54
2021/03/31 02:03:09;;;;;;;9.95;5.82;;;;;;;;;;4971568;28;20047;-54
2021/03/31 02:05:35;;;;;;;9.63;5.38;;;;;;;;;;4940353;28;20114;-53
2021/03/31 02:08:00;;;;;;;8.88;5.47;;;;;;;;;;4969084;28;20028;-53
2021/03/31 02:10:26;;;;;;;8.25;5.22;;;;;;;;;;4942025;28;20443;-52
2021/03/31 02:12:52;;;;;;;8.50;5.38;;;;;;;;;;4941528;28;20035;-54
2021/03/31 02:15:19;;;;;;;8.13;5.53;;;;;;;;;;4954901;28;20042;-53
2021/03/31 02:17:45;;;;;;;9.23;5.28;;;;;;;;;;4955379;28;20050;-52
2021/03/31 02:20:10;;;;;;;8.95;5.38;;;;;;;;;;4956681;28;20094;-51
2021/03/31 02:22:36;;;;;;;9.65;5.57;;;;;;;;;;4968355;28;20573;-54
2021/03/31 02:25:04;;;;;;;9.93;6.13;;;;;;;;;;4944410;28;20042;-51
2021/03/31 02:27:30;;;;;;;8.35;5.20;;;;;;;;;;4937024;28;20144;-52
2021/03/31 02:29:55;;;;;;;8.57;5.13;;;;;;;;;;4971824;28;20079;-54
2021/03/31 02:32:22;;;;;;;9.18;5.28;;;;;;;;;;4968376;28;20039;-52
2021/03/31 02:34:48;;;;;;;8.15;5.10;;;;;;;;;;4937546;28;20031;-55
2021/03/31 02:37:14;;;;;;;9.27;5.00;;;;;;;;;;4938464;28;20119;-53
2021/03/31 02:39:41;;;;;;;9.35;5.47;;;;;;;;;;4938404;28;20043;-52
2021/03/31 02:42:10;;;;;;;7.18;4.65;;;;;;;;;;4938217;28;20781;-51
2021/03/31 02:44:39;;;;;;;7.45;4.72;;;;;;;;;;4953208;28;20074;-50
2021/03/31 02:47:05;;;;;;;7.70;4.80;;;;;;;;;;4952427;28;20042;-54
2021/03/31 02:49:30;;;;;;;8.20;5.10;;;;;;;;;;4954036;28;20110;-54
2021/03/31 02:51:57;;;;;;;7.20;4.25;;;;;;;;;;4952365;28;20044;-53
2021/03/31 02:54:23;;;;;;;6.68;4.43;;;;;;;;;;4949900;28;21158;-54
2021/03/31 02:56:48;;;;;;;7.35;4.85;;;;;;;;;;4951836;28;20130;-53
2021/03/31 02:59:14;;;;;;;7.68;4.57;;;;;;;;;;4971705;28;20042;-54
2021/03/31 03:01:39;;;;;;;8.82;5.45;;;;;;;;;;4969562;28;20042;-54
2021/03/31 03:04:05;;;;;;;8.85;5.03;;;;;;;;;;4950416;28;20208;-51
2021/03/31 03:06:30;;;;;;;8.30;5.13;;;;;;;;;;4956237;28;20046;-53
2021/03/31 03:08:56;;;;;;;8.82;5.25;;;;;;;;;;4937697;28;20042;-55
2021/03/31 03:11:22;;;;;;;8.23;5.28;;;;;;;;;;4953400;28;20046;-50
2021/03/31 03:13:48;;;;;;;8.30;4.72;;;;;;;;;;4968495;28;20043;-52
2021/03/31 03:16:14;;;;;;;7.45;4.72;;;;;;;;;;4936977;28;20035;-52
2021/03/31 03:18:39;;;;;;;7.95;4.60;;;;;;;;;;4953506;28;20876;-51
2021/03/31 03:21:05;;;;;;;8.07;4.30;;;;;;;;;;4936944;28;20041;-51
2021/03/31 03:23:31;;;;;;;6.97;4.43;;;;;;;;;;4936572;28;20038;-54
2021/03/31 03:25:58;;;;;;;7.88;4.68;;;;;;;;;;4969308;28;20050;-53
2021/03/31 03:28:23;;;;;;;6.57;4.20;;;;;;;;;;4938379;28;20043;-54
2021/03/31 03:30:49;;;;;;;6.65;4.32;;;;;;;;;;4940366;28;20605;-54
2021/03/31 03:33:15;;;;;;;8.30;4.90;;;;;;;;;;4937300;28;20031;-52
2021/03/31 03:35:41;;;;;;;6.43;4.20;;;;;;;;;;4953653;28;20039;-54
2021/03/31 03:38:06;;;;;;;7.25;4.05;;;;;;;;;;4968919;28;20039;-54
2021/03/31 03:40:31;;;;;;;8.15;4.80;;;;;;;;;;4938562;28;20023;-51
2021/03/31 03:42:57;;;;;;;8.02;4.45;;;;;;;;;;4969387;28;20040;-53
2021/03/31 03:45:23;;;;;;;7.97;4.90;;;;;;;;;;4953043;28;20023;-53
2021/03/31 03:47:49;;;;;;;8.18;4.78;;;;;;;;;;4969684;28;20043;-54
2021/03/31 03:50:14;;;;;;;7.65;4.68;;;;;;;;;;4938296;28;20078;-54
2021/03/31 03:52:42;;;;;;;8.63;5.28;;;;;;;;;;4970579;28;20039;-54
2021/03/31 03:55:08;;;;;;;8.38;5.03;;;;;;;;;;4954029;28;20043;-51
2021/03/31 03:57:34;;;;;;;7.55;4.72;;;;;;;;;;4952463;28;20028;-53
2021/03/31 03:59:59;;;;;;;8.63;4.70;;;;;;;;;;4969190;28;21050;-52
2021/03/31 04:02:25;;;;;;;7.50;5.03;;;;;;;;;;4951962;28;20788;-51
2021/03/31 04:04:50;;;;;;;6.82;4.50;;;;;;;;;;4967932;28;20482;-52
2021/03/31 04:07:16;;;;;;;8.27;4.68;;;;;;;;;;4950788;28;20047;-54
2021/03/31 04:09:44;;;;;;;8.30;5.20;;;;;;;;;;4935569;28;20329;-54
2021/03/31 04:12:10;;;;;;;7.80;4.95;;;;;;;;;;4936846;28;20049;-55
2021/03/31 04:14:40;;;;;;;7.90;4.70;;;;;;;;;;4970382;28;20035;-54
2021/03/31 04:17:06;;;;;;;8.77;4.85;;;;;;;;;;4952089;28;20038;-54
2021/03/31 04:19:31;;;;;;;8.77;4.85;;;;;;;;;;4952393;28;20858;-55
2021/03/31 04:21:57;;;;;;;7.05;4.35;;;;;;;;;;4937624;28;20035;-52
2021/03/31 04:24:22;;;;;;;7.53;4.47;;;;;;;;;;4951763;28;20042;-52
2021/03/31 04:26:48;;;;;;;8.15;4.43;;;;;;;;;;4951201;28;20041;-52
2021/03/31 04:29:13;;;;;;;8.93;4.85;;;;;;;;;;4952716;28;20057;-51
2021/03/31 04:31:39;;;;;;;8.70;4.88;;;;;;;;;;4950937;28;20039;-53
2021/03/31 04:34:05;;;;;;;8.07;4.88;;;;;;;;;;4949138;28;20038;-53
2021/03/31 04:36:30;;;;;;;7.90;4.95;;;;;;;;;;4937328;28;20553;-54
2021/03/31 04:38:56;;;;;;;8.13;5.18;;;;;;;;;;4967212;28;20114;-54
2021/03/31 04:41:21;;;;;;;7.75;4.70;;;;;;;;;;4968471;28;20039;-52
2021/03/31 04:43:47;;;;;;;7.57;4.75;;;;;;;;;;4971556;28;20047;-54
2021/03/31 04:46:12;;;;;;;8.20;4.78;;;;;;;;;;4966960;28;20050;-54
2021/03/31 04:48:38;;;;;;;8.45;5.07;;;;;;;;;;4968842;28;20043;-54
2021/03/31 04:51:04;;;;;;;8.13;4.70;;;;;;;;;;4966492;28;20043;-54
2021/03/31 04:53:30;;;;;;;8.73;5.20;;;;;;;;;;4925025;28;20035;-54
2021/03/31 04:55:55;;;;;;;8.27;4.93;;;;;;;;;;4919940;28;20040;-53
2021/03/31 04:58:21;;;;;;;9.65;5.25;;;;;;;;;;4970609;28;20046;-54
2021/03/31 05:00:47;;;;;;;9.68;5.45;;;;;;;;;;4936800;28;20173;-52
2021/03/31 05:03:12;;;;;;;9.75;5.35;;;;;;;;;;4966094;28;20043;-54
2021/03/31 05:05:38;;;;;;;8.48;5.10;;;;;;;;;;4950777;28;20037;-54
2021/03/31 05:08:04;;;;;;;8.82;4.95;;;;;;;;;;4954336;28;20030;-51
2021/03/31 05:10:29;;;;;;;8.68;5.07;;;;;;;;;;4971443;28;20405;-51
2021/03/31 05:12:55;;;;;;;8.95;5.38;;;;;;;;;;4970695;28;20307;-54
2021/03/31 05:15:20;;;;;;;8.05;4.97;;;;;;;;;;4951350;28;20038;-54
2021/03/31 05:17:46;;;;;;;9.90;5.35;;;;;;;;;;4954709;28;20039;-57
2021/03/31 05:20:12;;;;;;;7.75;4.95;;;;;;;;;;4955179;28;20039;-54
2021/03/31 05:22:37;;;;;;;9.05;5.32;;;;;;;;;;4969822;28;20066;-52
2021/03/31 05:25:04;;;;;;;7.95;4.85;;;;;;;;;;4970157;28;20040;-54
2021/03/31 05:27:29;;;;;;;7.53;4.85;;;;;;;;;;4938243;28;20110;-51
2021/03/31 05:29:55;;;;;;;9.70;5.20;;;;;;;;;;4971309;28;20521;-54
2021/03/31 05:32:20;;;;;;;8.90;5.30;;;;;;;;;;4972521;28;20028;-52
2021/03/31 05:34:46;;;;;;;8.60;5.22;;;;;;;;;;4955464;28;20042;-54
2021/03/31 05:37:12;;;;;;;7.35;4.80;;;;;;;;;;4973347;28;20094;-52
2021/03/31 05:39:37;;;;;;;6.80;4.35;;;;;;;;;;4952803;28;20027;-55
2021/03/31 05:42:03;;;;;;;8.23;4.43;;;;;;;;;;4971474;28;20504;-51
2021/03/31 05:44:32;;;;;;;8.48;4.88;;;;;;;;;;4953426;28;20082;-54
2021/03/31 05:46:58;;;;;;;8.52;5.25;;;;;;;;;;4937458;28;20039;-54
2021/03/31 05:49:23;;;;;;;9.50;5.25;;;;;;;;;;4970385;28;20836;-52
2021/03/31 05:51:49;;;;;;;8.60;4.90;;;;;;;;;;4953107;28;20482;-51
2021/03/31 05:54:14;;;;;;;8.35;4.72;;;;;;;;;;4955041;28;20035;-53
2021/03/31 05:56:41;;;;;;;8.23;4.80;;;;;;;;;;4970370;28;20043;-55
2021/03/31 05:59:07;;;;;;;9.05;5.45;;;;;;;;;;4926700;28;20048;-53
2021/03/31 06:01:33;;;;;;;8.15;4.65;;;;;;;;;;4972880;28;20027;-54
2021/03/31 06:03:58;;;;;;;5.10;3.40;;;;;;;;;;4933856;28;20086;-57
2021/03/31 06:06:24;;;;;;;4.60;3.15;;;;;;;;;;4969928;28;20047;-54
2021/03/31 06:08:50;;;;;;;4.05;2.90;;;;;;;;;;4951628;28;20399;-51
2021/03/31 06:11:18;;;;;;;5.28;3.30;;;;;;;;;;4971393;28;20047;-52
2021/03/31 06:13:57;;;;;;;5.00;3.15;;;;;;;;;;4953664;28;20039;-54
2021/03/31 06:16:33;;;;;;;4.95;3.60;;;;;;;;;;4941446;28;20043;-52
2021/03/31 06:19:19;;;;;;;4.53;3.05;;;;;;;;;;4970831;28;20046;-50
2021/03/31 06:22:08;;;;;;;5.25;3.47;;;;;;;;;;4970988;28;20070;-54
2021/03/31 06:24:34;;;;;;;5.85;3.80;;;;;;;;;;4971636;28;20094;-53
2021/03/31 06:27:00;;;;;;;7.32;3.83;;;;;;;;;;4968701;28;20148;-53
2021/03/31 06:29:35;;;;;;;6.35;3.78;;;;;;;;;;4971034;28;20097;-54
2021/03/31 06:32:01;;;;;;;5.63;3.75;;;;;;;;;;4953594;28;20074;-51
2021/03/31 06:34:32;;;;;;;5.65;3.97;;;;;;;;;;4940958;28;20066;-50
2021/03/31 06:37:09;;;;;;;5.18;3.67;;;;;;;;;;4969137;28;20805;-50
2021/03/31 06:39:35;;;;;;;4.90;3.63;;;;;;;;;;4970935;28;21142;-51
2021/03/31 06:42:08;;;;;;;5.13;3.85;;;;;;;;;;4968930;28;20030;-53
2021/03/31 06:45:01;;;;;;;6.45;4.35;;;;;;;;;;4968942;28;20034;-51
2021/03/31 06:48:09;;;;;;;4.22;3.33;;;;;;;;;;4969830;28;20035;-52
2021/03/31 06:50:16;;;;;;;5.80;4.40;;;;;;;;;;4947699;28;20059;-52
2021/03/31 06:53:11;;;;;;;5.28;3.95;;;;;;;;;;4970260;28;20039;-55
2021/03/31 06:55:37;;;;;;;4.70;3.85;;;;;;;;;;4961192;28;20062;-50
2021/03/31 06:58:04;;;;;;;5.18;3.80;;;;;;;;;;4953259;28;20043;-53
2021/03/31 07:00:31;;;;;;;5.47;3.75;;;;;;;;;;4967713;28;20039;-53
2021/03/31 07:03:00;;;;;;;5.32;4.00;;;;;;;;;;4953408;28;20465;-51
2021/03/31 07:05:33;;;;;;;5.85;3.88;;;;;;;;;;4954413;28;20038;-53
2021/03/31 07:08:12;;;;;;;4.30;3.25;;;;;;;;;;4970752;28;20047;-54
2021/03/31 07:10:48;;;;;;;4.22;3.08;;;;;;;;;;4968878;28;20926;-54
2021/03/31 07:13:34;;;;;;;7.32;3.75;;;;;;;;;;4969347;28;20028;-53
2021/03/31 07:16:00;;;;;;;5.82;3.83;;;;;;;;;;4967659;28;20046;-54
2021/03/31 07:18:27;;;;;;;4.85;3.30;;;;;;;;;;4969428;28;20035;-56
2021/03/31 07:20:52;;;;;;;5.30;3.58;;;;;;;;;;4954146;28;20031;-55
2021/03/31 07:23:20;;;;;;;6.70;3.92;;;;;;;;;;4955003;28;20473;-54
2021/03/31 07:25:45;;;;;;;5.25;3.85;;;;;;;;;;4969247;28;20046;-55
2021/03/31 07:28:11;;;;;;;5.32;3.97;;;;;;;;;;4970241;28;20035;-55
2021/03/31 07:30:37;;;;;;;5.13;3.30;;;;;;;;;;4952145;28;20773;-55
2021/03/31 07:33:14;;;;;;;5.70;3.55;;;;;;;;;;4939865;28;20050;-52
2021/03/31 07:35:40;;;;;;;5.88;3.65;;;;;;;;;;4953311;28;20114;-55
2021/03/31 07:38:06;;;;;;;5.13;3.40;;;;;;;;;;4971630;28;20496;-55
2021/03/31 07:40:32;;;;;;;6.05;3.75;;;;;;;;;;4953304;28;20032;-55
2021/03/31 07:43:20;;;;;;;4.93;3.50;;;;;;;;;;4935451;28;20062;-56
2021/03/31 07:46:03;;;;;;;6.03;3.58;;;;;;;;;;4958153;28;20408;-56
2021/03/31 07:48:29;;;;;;;4.97;3.60;;;;;;;;;;4940545;28;20039;-55
2021/03/31 07:50:54;;;;;;;4.72;3.25;;;;;;;;;;4937485;28;20032;-54
2021/03/31 07:53:23;;;;;;;5.28;3.72;;;;;;;;;;4968675;28;20036;-54
2021/03/31 07:55:49;;;;;;;4.80;3.75;;;;;;;;;;4951681;28;20055;-53
2021/03/31 07:58:20;;;;;;;4.60;3.58;;;;;;;;;;4952817;28;20039;-54
2021/03/31 08:00:49;;;;;;;5.72;3.42;;;;;;;;;;4938664;28;20032;-55
2021/03/31 08:03:15;;;;;;;3.97;3.28;;;;;;;;;;4967236;28;20569;-56
2021/03/31 08:06:19;;;;;;;6.22;4.10;;;;;;;;;;4969296;28;20565;-53
2021/03/31 08:08:44;;;;;;;5.57;3.58;;;;;;;;;;4971020;28;20043;-55
2021/03/31 08:11:10;;;;;;;5.30;3.08;;;;;;;;;;4971280;28;20031;-54
2021/03/31 08:13:41;;;;;;;5.47;3.72;;;;;;;;;;4969447;28;20031;-55
2021/03/31 08:16:33;;;;;;;4.88;3.42;;;;;;;;;;4950648;28;20046;-54
2021/03/31 08:18:59;;;;;;;;;;;;;;;;;;4969190;28;20046;-53
2021/03/31 08:21:25;;;;;;;6.82;3.83;;;;;;;;;;4937639;28;20298;-54
2021/03/31 08:23:52;;;;;;;5.45;3.30;;;;;;;;;;4952356;28;20050;-55
2021/03/31 08:26:38;;;;;;;5.10;3.45;;;;;;;;;;4937159;28;20449;-54
2021/03/31 08:29:19;;;;;;;8.52;3.60;;;;;;;;;;4955315;28;20051;-55
2021/03/31 08:31:55;;;;;;;5.50;3.47;;;;;;;;;;4968242;28;21052;-56
2021/03/31 08:34:23;;;;;;;6.25;3.50;;;;;;;;;;4968278;28;20122;-56
2021/03/31 08:36:49;;;;;;;5.35;3.28;;;;;;;;;;4967985;28;20047;-56
2021/03/31 08:39:14;;;;;;;5.07;3.08;;;;;;;;;;4968538;28;20055;-54
2021/03/31 08:41:42;;;;;;;5.72;3.58;;;;;;;;;;4968363;28;20031;-55
2021/03/31 08:44:21;;;;;;;8.05;3.40;;;;;;;;;;4952738;28;20063;-52
2021/03/31 08:46:47;;;;;;;9.43;3.50;;;;;;;;;;4953853;28;20039;-55
2021/03/31 08:49:21;;;;;;;6.63;3.22;;;;;;;;;;4968772;28;20031;-55
2021/03/31 08:51:49;;;;;;;5.35;3.30;;;;;;;;;;4971105;28;20357;-55
2021/03/31 08:54:15;;;;;;;4.47;3.15;;;;;;;;;;4957458;28;20036;-54
2021/03/31 08:56:45;;;;;;;4.70;3.05;;;;;;;;;;4972671;28;21162;-54
2021/03/31 08:59:11;;;;;;;5.18;3.17;;;;;;;;;;4957407;28;20035;-54
2021/03/31 09:01:36;;;;;;;4.22;3.03;;;;;;;;;;4971950;28;20761;-54
2021/03/31 09:04:21;;;;;;;6.30;3.47;;;;;;;;;;4940426;28;20573;-52
2021/03/31 09:06:47;;;;;;;5.22;3.35;;;;;;;;;;4969125;28;20035;-55
2021/03/31 09:09:13;;;;;;;5.22;3.42;;;;;;;;;;4943637;28;20035;-55
2021/03/31 09:11:38;;;;;;;4.93;3.20;;;;;;;;;;4939402;28;21136;-56
2021/03/31 09:14:15;;;;;;;4.57;3.13;;;;;;;;;;4972929;28;20036;-53
2021/03/31 09:17:02;;;;;;;4.82;2.90;;;;;;;;;;4971437;28;20121;-55
2021/03/31 09:19:33;;;;;;;6.40;3.40;;;;;;;;;;4970944;28;20060;-55
2021/03/31 09:22:12;;;;;;;4.72;3.33;;;;;;;;;;4958009;28;20035;-54
2021/03/31 09:24:39;;;;;;;5.25;3.33;;;;;;;;;;4971041;28;20126;-55
2021/03/31 09:27:06;;;;;;;5.80;3.03;;;;;;;;;;4972828;28;20031;-56
2021/03/31 09:29:32;;;;;;;8.10;3.80;;;;;;;;;;4918561;28;20043;-52
2021/03/31 09:32:00;;;;;;;5.45;3.30;;;;;;;;;;4971413;28;20435;-55
2021/03/31 09:34:26;;;;;;;3.63;2.83;;;;;;;;;;4953961;28;20726;-55
2021/03/31 09:37:01;;;;;;;4.88;3.00;;;;;;;;;;4939162;28;20067;-55
2021/03/31 09:39:47;;;;;;;5.53;2.85;;;;;;;;;;4970507;28;20410;-55
2021/03/31 09:42:20;;;;;;;4.22;3.03;;;;;;;;;;4971445;28;20031;-54
2021/03/31 09:44:47;;;;;;;5.25;3.03;;;;;;;;;;4955465;28;20510;-55
2021/03/31 09:47:12;;;;;;;4.90;3.17;;;;;;;;;;4952049;28;20031;-56
2021/03/31 09:49:38;;;;;;;5.75;3.20;;;;;;;;;;4924348;28;20044;-55
2021/03/31 09:52:04;;;;;;;4.28;3.13;;;;;;;;;;4925917;28;20041;-56
2021/03/31 09:54:30;;;;;;;4.45;2.72;;;;;;;;;;4954810;28;20046;-53
2021/03/31 09:56:55;;;;;;;6.20;3.53;;;;;;;;;;4939117;28;20353;-55
2021/03/31 09:59:21;;;;;;;5.10;3.30;;;;;;;;;;4940185;28;20027;-56
2021/03/31 10:01:48;;;;;;;5.72;3.30;;;;;;;;;;4956463;28;20537;-55
2021/03/31 10:04:14;;;;;;;4.70;3.00;;;;;;;;;;4954603;28;20494;-55
2021/03/31 10:06:39;;;;;;;4.95;2.92;;;;;;;;;;4954284;28;20122;-54
2021/03/31 10:09:17;;;;;;;5.60;3.30;;;;;;;;;;4972357;28;20035;-51
2021/03/31 10:11:42;;;;;;;4.78;3.15;;;;;;;;;;4971060;28;20038;-55
2021/03/31 10:14:26;;;;;;;4.43;2.85;;;;;;;;;;4971371;28;20394;-56
2021/03/31 10:16:51;;;;;;;6.28;3.10;;;;;;;;;;4974053;28;20055;-55
2021/03/31 10:19:17;;;;;;;5.50;3.20;;;;;;;;;;4971531;28;20041;-54
2021/03/31 10:21:43;;;;;;;4.40;2.88;;;;;;;;;;4941686;28;20031;-55
2021/03/31 10:24:10;;;;;;;5.80;3.10;;;;;;;;;;4972906;28;20407;-54
2021/03/31 10:26:37;;;;;;;3.92;2.95;;;;;;;;;;4970856;28;20035;-54
2021/03/31 10:29:19;;;;;;;4.93;3.25;;;;;;;;;;4953805;28;20042;-54
2021/03/31 10:31:45;;;;;;;5.43;3.10;;;;;;;;;;4945847;28;20423;-56
2021/03/31 10:34:13;;;;;;;4.40;2.97;;;;;;;;;;4954931;28;20032;-54
2021/03/31 10:50:09;;;;;;;8.07;4.72;;;;;;;;;;4953842;28;20055;-55
2021/03/31 10:52:48;;;;;;;8.55;4.93;;;;;;;;;;4968365;28;20906;-53
2021/03/31 10:55:14;;;;;;;9.43;4.50;;;;;;;;;;4955019;28;20040;-54
2021/03/31 10:57:39;;;;;;;8.15;4.78;;;;;;;;;;4969853;28;20047;-55
2021/03/31 11:00:05;;;;;;;10.27;5.35;;;;;;;;;;4959317;28;20030;-53
2021/03/31 11:02:31;;;;;;;8.00;4.78;;;;;;;;;;4939365;28;20031;-56
2021/03/31 11:04:56;;;;;;;8.75;4.90;;;;;;;;;;4966483;28;20027;-53
2021/03/31 11:07:22;;;;;;;8.38;4.63;;;;;;;;;;4970655;28;20409;-52
2021/03/31 11:09:49;;;;;;;8.27;4.80;;;;;;;;;;4968320;28;20050;-54
2021/03/31 11:12:14;;;;;;;10.27;5.00;;;;;;;;;;4966894;28;20469;-55
2021/03/31 11:14:40;;;;;;;9.50;5.18;;;;;;;;;;4951949;28;20039;-51
2021/03/31 11:17:34;;;;;;;7.32;4.13;;;;;;;;;;4954439;28;20098;-54
2021/03/31 11:25:49;;;;;;;7.68;4.40;;;;;;;;;;4967755;28;20043;-54
2021/03/31 11:28:15;;;;;;;6.85;4.20;;;;;;;;;;4968836;28;20118;-54
2021/03/31 11:30:40;;;;;;;8.05;4.78;;;;;;;;;;4969650;28;20050;-55
2021/03/31 11:33:06;;;;;;;7.95;4.43;;;;;;;;;;4938295;28;20055;-52
2021/03/31 11:35:31;;;;;;;8.35;5.15;;;;;;;;;;4951444;28;20039;-55
2021/03/31 11:37:57;;;;;;;8.52;4.57;;;;;;;;;;4971578;28;20035;-55
2021/03/31 11:40:23;;;;;;;9.18;5.00;;;;;;;;;;4953314;28;20045;-56
2021/03/31 11:42:48;;;;;;;10.45;5.03;;;;;;;;;;4968381;28;20106;-54
2021/03/31 11:45:14;;;;;;;9.20;5.10;;;;;;;;;;4968424;28;20089;-54
2021/03/31 11:47:39;;;;;;;8.88;5.07;;;;;;;;;;4970085;28;20129;-52
2021/03/31 11:50:06;;;;;;;8.45;5.15;;;;;;;;;;4970144;28;20487;-52
2021/03/31 11:52:31;;;;;;;9.07;5.13;;;;;;;;;;4952810;28;20734;-54
2021/03/31 11:54:57;;;;;;;9.57;5.47;;;;;;;;;;4951671;28;20085;-54
2021/03/31 11:57:22;;;;;;;8.63;5.25;;;;;;;;;;4969856;28;20035;-55
2021/03/31 11:59:47;;;;;;;8.50;4.75;;;;;;;;;;4966959;28;20050;-55
2021/03/31 12:02:13;;;;;;;9.02;5.30;;;;;;;;;;4951784;28;20035;-55
2021/03/31 12:04:38;;;;;;;9.15;5.03;;;;;;;;;;4969935;28;20428;-52
2021/03/31 12:07:07;;;;;;;8.10;4.90;;;;;;;;;;4967207;28;20043;-54
2021/03/31 12:09:32;;;;;;;9.15;5.38;;;;;;;;;;4952325;28;20931;-55
2021/03/31 12:11:59;;;;;;;9.65;5.10;;;;;;;;;;4966210;28;20046;-55
2021/03/31 12:14:24;;;;;;;8.60;4.80;;;;;;;;;;4951891;28;20041;-55
2021/03/31 12:16:50;;;;;;;9.23;5.00;;;;;;;;;;4951634;28;20069;-53
2021/03/31 12:19:15;;;;;;;9.23;5.15;;;;;;;;;;4952073;28;20047;-54
2021/03/31 12:21:41;;;;;;;9.30;5.35;;;;;;;;;;4951806;28;20041;-53
2021/03/31 12:24:07;;;;;;;8.85;4.85;;;;;;;;;;4953504;28;20039;-53
2021/03/31 12:26:32;;;;;;;8.95;5.20;;;;;;;;;;4969848;28;20035;-54
2021/03/31 12:28:59;;;;;;;8.57;5.20;;;;;;;;;;4954302;28;20043;-53
2021/03/31 12:31:24;;;;;;;8.32;4.85;;;;;;;;;;4954404;28;20832;-54
2021/03/31 12:33:50;;;;;;;6.85;4.22;;;;;;;;;;4952324;28;20042;-55
2021/03/31 12:36:15;;;;;;;7.63;4.85;;;;;;;;;;4920729;28;20059;-54
2021/03/31 12:38:41;;;;;;;9.88;5.28;;;;;;;;;;4967852;28;20054;-55
2021/03/31 12:41:06;;;;;;;8.77;5.00;;;;;;;;;;4950782;28;20035;-55
2021/03/31 12:43:32;;;;;;;7.90;4.57;;;;;;;;;;4968338;28;20035;-55
2021/03/31 12:45:58;;;;;;;7.50;4.70;;;;;;;;;;4934460;28;20035;-52
2021/03/31 12:48:23;;;;;;;8.82;5.05;;;;;;;;;;4953448;28;20115;-54
2021/03/31 12:50:53;;;;;;;7.57;4.60;;;;;;;;;;4967204;28;20047;-56
2021/03/31 12:53:22;;;;;;;7.63;4.53;;;;;;;;;;4969803;28;20031;-54
2021/03/31 12:55:50;;;;;;;8.45;4.80;;;;;;;;;;4969077;28;20178;-53
2021/03/31 12:58:18;;;;;;;8.50;4.90;;;;;;;;;;4953295;28;21295;-55
2021/03/31 13:00:45;;;;;;;9.88;5.30;;;;;;;;;;4964704;28;20040;-55
2021/03/31 13:03:10;;;;;;;8.63;4.50;;;;;;;;;;4952706;28;20035;-54
2021/03/31 13:05:37;;;;;;;7.50;4.38;;;;;;;;;;4970667;28;20040;-55
2021/03/31 13:08:05;;;;;;;6.85;4.07;;;;;;;;;;4937637;28;20030;-54
2021/03/31 13:10:30;;;;;;;7.32;4.13;;;;;;;;;;4939080;28;20849;-52
2021/03/31 13:12:58;;;;;;;7.10;4.22;;;;;;;;;;4952379;28;20031;-55
2021/03/31 13:23:33;;;;;;;6.90;3.78;;;;;;;;;;4969933;28;20494;-51
2021/03/31 13:26:07;;;;;;;6.40;3.40;;;;;;;;;;4954522;28;20041;-54
2021/03/31 13:28:53;;;;;;;6.03;3.33;;;;;;;;;;4968583;28;20450;-53
2021/03/31 13:31:32;;;;;;;6.38;3.45;;;;;;;;;;4964085;28;20170;-54
2021/03/31 13:34:02;;;;;;;7.50;3.88;;;;;;;;;;4950267;28;20039;-56
2021/03/31 13:36:33;;;;;;;6.95;4.07;;;;;;;;;;4965411;28;20027;-54
2021/03/31 13:41:26;;;;;;;5.68;3.58;;;;;;;;;;4969871;28;20031;-54
2021/03/31 13:43:51;;;;;;;6.32;3.38;;;;;;;;;;4953358;28;20106;-52
2021/03/31 13:46:17;;;;;;;5.43;3.00;;;;;;;;;;4968274;28;20048;-55
2021/03/31 13:51:14;;;;;;;7.87;3.73;;;;;;;;;;4971832;28;20209;-55
2021/03/31 13:53:40;;;;;;;5.97;3.33;;;;;;;;;;4973366;28;21113;-56
2021/03/31 13:56:14;;;;;;;6.15;3.35;;;;;;;;;;4970720;28;20040;-55
2021/03/31 13:58:40;;;;;;;7.35;3.78;;;;;;;;;;4956560;28;20046;-51
2021/03/31 14:01:05;;;;;;;6.20;3.47;;;;;;;;;;4953327;28;20039;-55
2021/03/31 14:03:31;;;;;;;4.60;3.10;;;;;;;;;;4972956;28;20035;-56
2021/03/31 14:05:56;;;;;;;4.30;2.50;;;;;;;;;;4972283;28;20043;-56
2021/03/31 14:08:22;;;;;;;4.65;2.50;;;;;;;;;;4953981;28;20046;-54
2021/03/31 14:10:47;;;;;;;4.10;2.58;;;;;;;;;;4954943;28;20082;-56
2021/03/31 14:13:13;;;;;;;6.50;3.15;;;;;;;;;;4953793;28;20039;-55
2021/03/31 14:15:38;;;;;;;5.38;3.08;;;;;;;;;;4969302;28;20479;-54
2021/03/31 14:18:06;;;;;;;5.50;3.20;;;;;;;;;;4970500;28;20095;-55
2021/03/31 14:20:31;;;;;;;4.72;2.70;;;;;;;;;;4972080;28;20042;-55
2021/03/31 14:22:57;;;;;;;5.38;2.85;;;;;;;;;;4973578;28;20415;-55
2021/03/31 14:25:22;;;;;;;4.38;2.40;;;;;;;;;;4970026;28;20040;-53
2021/03/31 14:27:49;;;;;;;6.15;2.72;;;;;;;;;;4970246;28;20481;-54
2021/03/31 14:30:18;;;;;;;3.50;2.25;;;;;;;;;;4969201;28;20122;-59
2021/03/31 14:32:44;;;;;;;4.93;2.75;;;;;;;;;;4967701;28;20034;-57
2021/03/31 14:35:10;;;;;;;3.70;2.20;;;;;;;;;;4950327;28;20038;-53
2021/03/31 14:37:36;;;;;;;5.00;2.95;;;;;;;;;;4969415;28;20442;-55
2021/03/31 14:40:03;;;;;;;5.03;2.85;;;;;;;;;;4952167;28;20281;-53
2021/03/31 14:42:28;;;;;;;5.28;2.90;;;;;;;;;;4945055;28;20037;-56
2021/03/31 14:44:54;;;;;;;4.07;2.40;;;;;;;;;;4972146;28;20453;-55
2021/03/31 14:47:19;;;;;;;3.95;2.38;;;;;;;;;;4954355;28;20038;-55
2021/03/31 14:49:45;;;;;;;4.97;2.80;;;;;;;;;;4957224;28;20039;-56
2021/03/31 15:00:25;;;;;;;5.00;2.77;;;;;;;;;;4969929;28;20502;-56
2021/03/31 15:02:51;;;;;;;5.05;2.83;;;;;;;;;;4955298;28;20228;-56
2021/03/31 15:05:16;;;;;;;4.70;2.78;;;;;;;;;;4969181;28;20745;-52
2021/03/31 15:07:42;;;;;;;4.38;2.72;;;;;;;;;;4952382;28;20050;-53
2021/03/31 15:10:08;;;;;;;4.70;2.85;;;;;;;;;;4971678;28;20535;-52
2021/03/31 15:12:33;;;;;;;4.78;2.67;;;;;;;;;;4969620;28;20035;-56
2021/03/31 15:14:59;;;;;;;5.28;2.90;;;;;;;;;;4950979;28;20393;-52
2021/03/31 15:17:24;;;;;;;5.32;2.78;;;;;;;;;;4969985;28;20035;-52
2021/03/31 15:19:56;;;;;;;4.82;2.60;;;;;;;;;;4968918;28;20043;-54
2021/03/31 15:24:54;;;;;;;4.03;2.35;;;;;;;;;;4968417;28;19918;-53
2021/03/31 15:27:19;;;;;;;4.25;2.40;;;;;;;;;;4971653;28;20863;-51
2021/03/31 15:29:45;;;;;;;4.50;2.55;;;;;;;;;;4953192;28;20094;-55